sensor_id;sensor_type;location;lat;lon;timestamp;pressure;altitude;pressure_sealevel;temperature;humidity
51299;BME280;37382;45.192;9.790;2023-04-22T03:45:30;101137.78;;;11.90;100.00
51299;BME280;37382;45.192;9.790;2023-04-22T03:48:18;101143.13;;;11.55;100.00
51299;BME280;37382;45.192;9.790;2023-04-22T03:50:51;101134.97;;;11.34;100.00
51299;BME280;37382;45.192;9.790;2023-04-22T03:53:19;101130.03;;;11.23;100.00
51299;BME280;37382;45.192;9.790;2023-04-22T03:55:48;101134.81;;;11.20;100.00
51299;BME280;37382;45.192;9.790;2023-04-22T03:58:17;101133.53;;;11.38;100.00
51299;BME280;37382;45.192;9.790;2023-04-22T04:00:47;101135.50;;;11.66;100.00
51299;BME280;37382;45.192;9.790;2023-04-22T04:03:16;101131.72;;;11.67;100.00
51299;BME280;37382;45.192;9.790;2023-04-22T04:05:47;101134.47;;;11.67;100.00
51299;BME280;37382;45.192;9.790;2023-04-22T04:08:15;101134.38;;;11.60;100.00
51299;BME280;37382;45.192;9.790;2023-04-22T04:10:43;101138.56;;;11.56;100.00
51299;BME280;37382;45.192;9.790;2023-04-22T04:13:13;101140.94;;;11.44;100.00
51299;BME280;37382;45.192;9.790;2023-04-22T04:16:02;101143.03;;;11.42;100.00
51299;BME280;37382;45.192;9.790;2023-04-22T04:18:31;101139.63;;;11.62;100.00
51299;BME280;37382;45.192;9.790;2023-04-22T04:20:59;101141.72;;;11.60;100.00
51299;BME280;37382;45.192;9.790;2023-04-22T04:23:29;101141.13;;;11.64;100.00
51299;BME280;37382;45.192;9.790;2023-04-22T04:25:58;101140.50;;;11.62;100.00
51299;BME280;37382;45.192;9.790;2023-04-22T04:28:29;101138.75;;;11.54;100.00
51299;BME280;37382;45.192;9.790;2023-04-22T04:30:59;101137.38;;;11.65;100.00
51299;BME280;37382;45.192;9.790;2023-04-22T04:33:30;101138.94;;;11.53;100.00
51299;BME280;37382;45.192;9.790;2023-04-22T04:35:59;101136.22;;;11.31;100.00
51299;BME280;37382;45.192;9.790;2023-04-22T04:38:30;101140.34;;;11.27;100.00
51299;BME280;37382;45.192;9.790;2023-04-22T04:40:58;101149.50;;;11.63;100.00
51299;BME280;37382;45.192;9.790;2023-04-22T04:43:26;101148.66;;;11.84;100.00
51299;BME280;37382;45.192;9.790;2023-04-22T04:46:21;101144.22;;;11.83;100.00
51299;BME280;37382;45.192;9.790;2023-04-22T04:48:50;101141.19;;;11.49;100.00
51299;BME280;37382;45.192;9.790;2023-04-22T04:51:20;101149.66;;;11.18;100.00
51299;BME280;37382;45.192;9.790;2023-04-22T04:53:52;101150.38;;;11.27;100.00
51299;BME280;37382;45.192;9.790;2023-04-22T04:56:20;101156.19;;;11.60;100.00
51299;BME280;37382;45.192;9.790;2023-04-22T04:58:48;101165.03;;;11.62;100.00
51299;BME280;37382;45.192;9.790;2023-04-22T05:01:19;101159.75;;;11.82;100.00
51299;BME280;37382;45.192;9.790;2023-04-22T05:03:48;101169.09;;;11.73;100.00
51299;BME280;37382;45.192;9.790;2023-04-22T05:06:18;101166.38;;;11.73;100.00
51299;BME280;37382;45.192;9.790;2023-04-22T05:08:50;101162.78;;;11.29;100.00
51299;BME280;37382;45.192;9.790;2023-04-22T05:11:19;101173.09;;;11.34;100.00
51299;BME280;37382;45.192;9.790;2023-04-22T05:13:50;101168.22;;;11.29;100.00
51299;BME280;37382;45.192;9.790;2023-04-22T05:16:25;101160.06;;;11.29;100.00
51299;BME280;37382;45.192;9.790;2023-04-22T05:18:53;101163.13;;;11.41;100.00
51299;BME280;37382;45.192;9.790;2023-04-22T05:21:22;101166.97;;;11.47;100.00
51299;BME280;37382;45.192;9.790;2023-04-22T05:23:49;101181.97;;;11.57;100.00
51299;BME280;37382;45.192;9.790;2023-04-22T05:26:19;101188.00;;;11.74;100.00
51299;BME280;37382;45.192;9.790;2023-04-22T05:28:49;101184.44;;;11.96;100.00
51299;BME280;37382;45.192;9.790;2023-04-22T05:31:20;101196.38;;;11.73;100.00
51299;BME280;37382;45.192;9.790;2023-04-22T05:33:48;101192.31;;;11.69;100.00
51299;BME280;37382;45.192;9.790;2023-04-22T05:36:16;101191.19;;;11.42;100.00
51299;BME280;37382;45.192;9.790;2023-04-22T05:38:45;101187.38;;;11.36;100.00
51299;BME280;37382;45.192;9.790;2023-04-22T05:41:14;101190.78;;;11.23;100.00
51299;BME280;37382;45.192;9.790;2023-04-22T05:43:42;101192.75;;;11.14;100.00
51299;BME280;37382;45.192;9.790;2023-04-22T05:46:15;101186.75;;;11.19;100.00
51299;BME280;37382;45.192;9.790;2023-04-22T05:48:44;101194.97;;;11.41;100.00
51299;BME280;37382;45.192;9.790;2023-04-22T05:51:32;101201.84;;;11.36;100.00
51299;BME280;37382;45.192;9.790;2023-04-22T05:54:00;101192.31;;;11.47;100.00
51299;BME280;37382;45.192;9.790;2023-04-22T05:56:27;101191.00;;;11.43;100.00
51299;BME280;37382;45.192;9.790;2023-04-22T05:58:55;101195.69;;;11.49;100.00
51299;BME280;37382;45.192;9.790;2023-04-22T06:01:24;101180.31;;;11.63;100.00
51299;BME280;37382;45.192;9.790;2023-04-22T06:03:56;101186.50;;;11.93;100.00
51299;BME280;37382;45.192;9.790;2023-04-22T06:06:25;101183.06;;;12.06;100.00
51299;BME280;37382;45.192;9.790;2023-04-22T06:08:53;101188.72;;;12.33;100.00
51299;BME280;37382;45.192;9.790;2023-04-22T06:11:21;101197.47;;;12.50;100.00
51299;BME280;37382;45.192;9.790;2023-04-22T06:13:48;101190.41;;;12.62;100.00
51299;BME280;37382;45.192;9.790;2023-04-22T06:16:17;101196.94;;;12.68;100.00
51299;BME280;37382;45.192;9.790;2023-04-22T06:18:44;101197.44;;;12.78;100.00
51299;BME280;37382;45.192;9.790;2023-04-22T06:21:13;101197.84;;;12.19;100.00
51299;BME280;37382;45.192;9.790;2023-04-22T06:23:41;101203.56;;;12.24;100.00
51299;BME280;37382;45.192;9.790;2023-04-22T06:26:09;101202.38;;;12.61;100.00
51299;BME280;37382;45.192;9.790;2023-04-22T06:28:37;101203.59;;;12.59;100.00
51299;BME280;37382;45.192;9.790;2023-04-22T06:31:10;101203.16;;;12.27;100.00
51299;BME280;37382;45.192;9.790;2023-04-22T06:33:37;101204.88;;;12.35;100.00
51299;BME280;37382;45.192;9.790;2023-04-22T06:36:05;101201.72;;;12.31;100.00
51299;BME280;37382;45.192;9.790;2023-04-22T06:38:35;101201.97;;;12.36;100.00
51299;BME280;37382;45.192;9.790;2023-04-22T06:41:31;101210.06;;;12.51;100.00
51299;BME280;37382;45.192;9.790;2023-04-22T06:44:05;101212.41;;;12.89;100.00
51299;BME280;37382;45.192;9.790;2023-04-22T06:46:53;101199.50;;;13.60;100.00
51299;BME280;37382;45.192;9.790;2023-04-22T06:49:56;101203.75;;;13.96;100.00
51299;BME280;37382;45.192;9.790;2023-04-22T06:52:29;101196.75;;;13.73;100.00
51299;BME280;37382;45.192;9.790;2023-04-22T06:54:58;101197.00;;;14.05;100.00
51299;BME280;37382;45.192;9.790;2023-04-22T06:57:25;101194.03;;;13.66;100.00
51299;BME280;37382;45.192;9.790;2023-04-22T06:59:53;101199.94;;;13.77;100.00
51299;BME280;37382;45.192;9.790;2023-04-22T07:02:21;101200.34;;;13.74;100.00
51299;BME280;37382;45.192;9.790;2023-04-22T07:04:49;101205.16;;;13.72;100.00
51299;BME280;37382;45.192;9.790;2023-04-22T07:07:17;101201.66;;;14.04;100.00
51299;BME280;37382;45.192;9.790;2023-04-22T07:09:45;101216.72;;;13.67;100.00
51299;BME280;37382;45.192;9.790;2023-04-22T07:12:12;101216.56;;;13.75;100.00
51299;BME280;37382;45.192;9.790;2023-04-22T07:14:44;101212.75;;;13.76;100.00
51299;BME280;37382;45.192;9.790;2023-04-22T07:17:11;101210.06;;;14.30;100.00
51299;BME280;37382;45.192;9.790;2023-04-22T07:19:39;101207.13;;;14.31;100.00
51299;BME280;37382;45.192;9.790;2023-04-22T07:22:07;101209.22;;;13.89;100.00
51299;BME280;37382;45.192;9.790;2023-04-22T07:24:34;101208.78;;;13.92;100.00
51299;BME280;37382;45.192;9.790;2023-04-22T07:27:02;101191.50;;;14.58;100.00
51299;BME280;37382;45.192;9.790;2023-04-22T07:29:30;101201.63;;;14.65;100.00
51299;BME280;37382;45.192;9.790;2023-04-22T07:31:57;101193.72;;;15.15;100.00
51299;BME280;37382;45.192;9.790;2023-04-22T07:34:25;101204.97;;;15.39;100.00
51299;BME280;37382;45.192;9.790;2023-04-22T07:36:53;101198.59;;;15.45;100.00
51299;BME280;37382;45.192;9.790;2023-04-22T07:39:21;101197.28;;;15.54;100.00
51299;BME280;37382;45.192;9.790;2023-04-22T07:41:48;101198.72;;;15.25;100.00
51299;BME280;37382;45.192;9.790;2023-04-22T07:44:17;101202.00;;;15.40;100.00
51299;BME280;37382;45.192;9.790;2023-04-22T07:46:48;101205.03;;;15.25;100.00
51299;BME280;37382;45.192;9.790;2023-04-22T07:49:16;101196.41;;;15.22;100.00
51299;BME280;37382;45.192;9.790;2023-04-22T07:51:44;101202.88;;;15.34;100.00
51299;BME280;37382;45.192;9.790;2023-04-22T07:54:12;101204.63;;;15.60;100.00
51299;BME280;37382;45.192;9.790;2023-04-22T07:56:40;101195.31;;;16.07;100.00
51299;BME280;37382;45.192;9.790;2023-04-22T07:59:07;101195.38;;;16.69;100.00
51299;BME280;37382;45.192;9.790;2023-04-22T08:01:35;101199.91;;;15.74;100.00
51299;BME280;37382;45.192;9.790;2023-04-22T08:04:02;101190.78;;;15.87;100.00
51299;BME280;37382;45.192;9.790;2023-04-22T08:06:30;101194.13;;;15.57;100.00
51299;BME280;37382;45.192;9.790;2023-04-22T08:08:59;101193.50;;;16.19;100.00
51299;BME280;37382;45.192;9.790;2023-04-22T08:11:26;101190.47;;;16.27;100.00
51299;BME280;37382;45.192;9.790;2023-04-22T08:13:53;101186.28;;;16.25;100.00
51299;BME280;37382;45.192;9.790;2023-04-22T08:16:21;101190.25;;;16.29;100.00
51299;BME280;37382;45.192;9.790;2023-04-22T08:18:49;101186.41;;;16.11;100.00
51299;BME280;37382;45.192;9.790;2023-04-22T08:21:18;101189.19;;;16.30;100.00
51299;BME280;37382;45.192;9.790;2023-04-22T08:23:45;101191.16;;;16.66;100.00
51299;BME280;37382;45.192;9.790;2023-04-22T08:26:13;101190.97;;;17.05;100.00
51299;BME280;37382;45.192;9.790;2023-04-22T08:28:42;101193.78;;;17.17;100.00
51299;BME280;37382;45.192;9.790;2023-04-22T08:31:09;101191.63;;;16.38;100.00
51299;BME280;37382;45.192;9.790;2023-04-22T08:33:39;101189.25;;;16.23;100.00
51299;BME280;37382;45.192;9.790;2023-04-22T08:36:08;101187.53;;;16.91;100.00
51299;BME280;37382;45.192;9.790;2023-04-22T08:38:37;101181.16;;;17.28;100.00
51299;BME280;37382;45.192;9.790;2023-04-22T08:41:05;101181.50;;;17.50;100.00
51299;BME280;37382;45.192;9.790;2023-04-22T08:43:33;101177.16;;;17.12;100.00
51299;BME280;37382;45.192;9.790;2023-04-22T08:46:00;101183.97;;;16.84;100.00
51299;BME280;37382;45.192;9.790;2023-04-22T08:48:28;101174.25;;;17.06;100.00
51299;BME280;37382;45.192;9.790;2023-04-22T08:50:57;101180.97;;;16.92;100.00
51299;BME280;37382;45.192;9.790;2023-04-22T08:53:24;101173.53;;;17.11;100.00
51299;BME280;37382;45.192;9.790;2023-04-22T08:55:54;101178.53;;;17.21;100.00
51299;BME280;37382;45.192;9.790;2023-04-22T08:58:22;101187.59;;;16.84;100.00
51299;BME280;37382;45.192;9.790;2023-04-22T09:00:50;101181.59;;;16.50;100.00
51299;BME280;37382;45.192;9.790;2023-04-22T09:03:19;101190.75;;;16.88;100.00
51299;BME280;37382;45.192;9.790;2023-04-22T09:05:50;101184.63;;;16.42;100.00
51299;BME280;37382;45.192;9.790;2023-04-22T09:08:19;101185.91;;;16.83;100.00
51299;BME280;37382;45.192;9.790;2023-04-22T09:10:47;101178.06;;;17.05;100.00
51299;BME280;37382;45.192;9.790;2023-04-22T09:13:15;101179.97;;;17.54;100.00
51299;BME280;37382;45.192;9.790;2023-04-22T09:15:44;101180.34;;;17.27;100.00
51299;BME280;37382;45.192;9.790;2023-04-22T09:18:11;101168.69;;;17.43;100.00
51299;BME280;37382;45.192;9.790;2023-04-22T09:20:43;101175.56;;;17.53;100.00
51299;BME280;37382;45.192;9.790;2023-04-22T09:23:12;101165.50;;;17.28;100.00
51299;BME280;37382;45.192;9.790;2023-04-22T09:25:40;101166.63;;;17.09;100.00
51299;BME280;37382;45.192;9.790;2023-04-22T09:28:11;101163.06;;;17.81;100.00
51299;BME280;37382;45.192;9.790;2023-04-22T09:30:39;101159.56;;;18.27;100.00
51299;BME280;37382;45.192;9.790;2023-04-22T09:33:06;101163.28;;;18.45;100.00
51299;BME280;37382;45.192;9.790;2023-04-22T09:35:36;101155.97;;;18.39;100.00
51299;BME280;37382;45.192;9.790;2023-04-22T09:38:06;101159.75;;;17.90;100.00
51299;BME280;37382;45.192;9.790;2023-04-22T09:40:36;101158.81;;;17.96;100.00
51299;BME280;37382;45.192;9.790;2023-04-22T09:43:07;101151.41;;;18.33;100.00
51299;BME280;37382;45.192;9.790;2023-04-22T09:45:41;101149.16;;;17.64;100.00
51299;BME280;37382;45.192;9.790;2023-04-22T09:48:13;101148.44;;;18.10;100.00
51299;BME280;37382;45.192;9.790;2023-04-22T09:50:43;101147.25;;;18.18;100.00
51299;BME280;37382;45.192;9.790;2023-04-22T09:53:13;101145.09;;;18.44;100.00
51299;BME280;37382;45.192;9.790;2023-04-22T09:56:03;101132.94;;;18.69;100.00
51299;BME280;37382;45.192;9.790;2023-04-22T09:58:30;101139.53;;;18.56;100.00
51299;BME280;37382;45.192;9.790;2023-04-22T10:00:58;101137.88;;;18.55;100.00
51299;BME280;37382;45.192;9.790;2023-04-22T10:03:25;101136.88;;;18.73;100.00
51299;BME280;37382;45.192;9.790;2023-04-22T10:05:53;101134.66;;;18.58;100.00
51299;BME280;37382;45.192;9.790;2023-04-22T10:08:20;101118.22;;;18.87;100.00
51299;BME280;37382;45.192;9.790;2023-04-22T10:10:48;101134.25;;;18.90;100.00
51299;BME280;37382;45.192;9.790;2023-04-22T10:13:16;101120.84;;;19.22;100.00
51299;BME280;37382;45.192;9.790;2023-04-22T10:15:49;101127.38;;;19.33;100.00
51299;BME280;37382;45.192;9.790;2023-04-22T10:18:22;101129.84;;;19.17;100.00
51299;BME280;37382;45.192;9.790;2023-04-22T10:20:52;101116.63;;;19.48;100.00
51299;BME280;37382;45.192;9.790;2023-04-22T10:23:22;101108.78;;;19.57;100.00
51299;BME280;37382;45.192;9.790;2023-04-22T10:25:54;101105.75;;;19.42;100.00
51299;BME280;37382;45.192;9.790;2023-04-22T10:28:22;101115.50;;;19.04;100.00
51299;BME280;37382;45.192;9.790;2023-04-22T10:30:50;101110.41;;;18.83;100.00
51299;BME280;37382;45.192;9.790;2023-04-22T10:36:18;101089.44;;;18.71;100.00
51299;BME280;37382;45.192;9.790;2023-04-22T10:41:31;101093.41;;;19.61;100.00
51299;BME280;37382;45.192;9.790;2023-04-22T10:44:00;101081.66;;;19.37;100.00
51299;BME280;37382;45.192;9.790;2023-04-22T10:49:18;101081.06;;;19.35;100.00
51299;BME280;37382;45.192;9.790;2023-04-22T10:59:40;101079.72;;;21.06;100.00
51299;BME280;37382;45.192;9.790;2023-04-22T11:02:10;101079.22;;;21.09;100.00
51299;BME280;37382;45.192;9.790;2023-04-22T11:04:39;101075.03;;;21.06;100.00
51299;BME280;37382;45.192;9.790;2023-04-22T11:15:16;101072.97;;;21.19;100.00
51299;BME280;37382;45.192;9.790;2023-04-22T11:17:45;101065.03;;;21.27;100.00
51299;BME280;37382;45.192;9.790;2023-04-22T11:20:14;101067.91;;;20.88;100.00
51299;BME280;37382;45.192;9.790;2023-04-22T11:22:55;101069.00;;;21.09;100.00
51299;BME280;37382;45.192;9.790;2023-04-22T11:25:24;101065.66;;;19.85;100.00
51299;BME280;37382;45.192;9.790;2023-04-22T11:27:53;101069.31;;;20.07;100.00
51299;BME280;37382;45.192;9.790;2023-04-22T11:30:23;101063.28;;;20.11;100.00
51299;BME280;37382;45.192;9.790;2023-04-22T11:32:52;101064.25;;;20.60;100.00
51299;BME280;37382;45.192;9.790;2023-04-22T11:37:53;101065.38;;;21.63;100.00
51299;BME280;37382;45.192;9.790;2023-04-22T11:40:22;101048.53;;;21.10;100.00
51299;BME280;37382;45.192;9.790;2023-04-22T11:43:00;101052.97;;;21.71;100.00
51299;BME280;37382;45.192;9.790;2023-04-22T11:45:30;101049.00;;;21.57;100.00
51299;BME280;37382;45.192;9.790;2023-04-22T11:48:00;101050.28;;;22.24;100.00
51299;BME280;37382;45.192;9.790;2023-04-22T11:50:31;101045.88;;;22.28;99.99
51299;BME280;37382;45.192;9.790;2023-04-22T11:53:01;101042.69;;;22.52;100.00
51299;BME280;37382;45.192;9.790;2023-04-22T11:55:34;101038.38;;;22.24;93.91
51299;BME280;37382;45.192;9.790;2023-04-22T12:00:38;101029.88;;;23.60;91.49
51299;BME280;37382;45.192;9.790;2023-04-22T12:03:15;101031.09;;;22.12;88.05
51299;BME280;37382;45.192;9.790;2023-04-22T12:05:52;101026.66;;;22.64;86.69
51299;BME280;37382;45.192;9.790;2023-04-22T12:08:34;101023.41;;;22.88;82.25
51299;BME280;37382;45.192;9.790;2023-04-22T12:11:05;101028.38;;;22.91;83.06
51299;BME280;37382;45.192;9.790;2023-04-22T12:13:40;101019.34;;;23.42;79.18
51299;BME280;37382;45.192;9.790;2023-04-22T12:16:09;101023.22;;;23.36;83.55
51299;BME280;37382;45.192;9.790;2023-04-22T12:21:17;101006.88;;;24.56;74.11
51299;BME280;37382;45.192;9.790;2023-04-22T12:23:52;101021.13;;;22.74;76.64
51299;BME280;37382;45.192;9.790;2023-04-22T12:26:22;101021.72;;;21.76;81.67
51299;BME280;37382;45.192;9.790;2023-04-22T12:28:54;101018.97;;;22.29;80.13
51299;BME280;37382;45.192;9.790;2023-04-22T12:31:23;101014.72;;;22.59;80.30
51299;BME280;37382;45.192;9.790;2023-04-22T12:33:51;101023.53;;;21.97;81.11
51299;BME280;37382;45.192;9.790;2023-04-22T12:36:20;101009.81;;;21.75;82.85
51299;BME280;37382;45.192;9.790;2023-04-22T12:38:48;101015.97;;;21.82;85.20
51299;BME280;37382;45.192;9.790;2023-04-22T12:41:17;101009.50;;;22.78;82.60
51299;BME280;37382;45.192;9.790;2023-04-22T12:43:45;101005.75;;;22.41;81.35
51299;BME280;37382;45.192;9.790;2023-04-22T12:46:12;100999.25;;;22.88;78.18
51299;BME280;37382;45.192;9.790;2023-04-22T12:48:40;100993.50;;;23.57;81.87
51299;BME280;37382;45.192;9.790;2023-04-22T12:51:08;100996.25;;;23.05;76.59
51299;BME280;37382;45.192;9.790;2023-04-22T12:53:36;100989.03;;;23.82;78.38
51299;BME280;37382;45.192;9.790;2023-04-22T12:56:04;100982.56;;;24.77;74.44
51299;BME280;37382;45.192;9.790;2023-04-22T12:58:32;100986.47;;;24.16;69.68
51299;BME280;37382;45.192;9.790;2023-04-22T13:00:59;100988.22;;;23.86;71.87
51299;BME280;37382;45.192;9.790;2023-04-22T13:03:27;100970.94;;;24.70;68.66
51299;BME280;37382;45.192;9.790;2023-04-22T13:05:54;100977.41;;;23.23;69.53
51299;BME280;37382;45.192;9.790;2023-04-22T13:08:22;100978.72;;;22.69;74.53
51299;BME280;37382;45.192;9.790;2023-04-22T13:10:49;100970.69;;;23.03;74.34
51299;BME280;37382;45.192;9.790;2023-04-22T13:13:17;100962.66;;;24.60;73.35
51299;BME280;37382;45.192;9.790;2023-04-22T13:15:46;100960.78;;;24.95;66.82
51299;BME280;37382;45.192;9.790;2023-04-22T13:18:21;100967.78;;;24.32;71.56
51299;BME280;37382;45.192;9.790;2023-04-22T13:20:50;100960.97;;;23.68;70.36
51299;BME280;37382;45.192;9.790;2023-04-22T13:23:18;100972.91;;;23.89;69.31
51299;BME280;37382;45.192;9.790;2023-04-22T13:25:48;100962.44;;;23.34;71.39
51299;BME280;37382;45.192;9.790;2023-04-22T13:28:16;100952.34;;;25.05;68.63
51299;BME280;37382;45.192;9.790;2023-04-22T13:30:44;100950.25;;;26.09;66.61
51299;BME280;37382;45.192;9.790;2023-04-22T13:33:11;100952.38;;;26.17;62.84
51299;BME280;37382;45.192;9.790;2023-04-22T13:35:39;100954.31;;;24.60;65.04
51299;BME280;37382;45.192;9.790;2023-04-22T13:38:06;100955.75;;;23.35;68.65
51299;BME280;37382;45.192;9.790;2023-04-22T13:40:33;100945.94;;;24.00;67.80
51299;BME280;37382;45.192;9.790;2023-04-22T13:43:02;100944.50;;;24.12;68.08
51299;BME280;37382;45.192;9.790;2023-04-22T13:45:30;100943.75;;;24.57;67.32
51299;BME280;37382;45.192;9.790;2023-04-22T13:47:57;100934.88;;;24.49;63.59
51299;BME280;37382;45.192;9.790;2023-04-22T13:50:26;100936.44;;;24.16;65.76
51299;BME280;37382;45.192;9.790;2023-04-22T13:52:53;100935.91;;;24.04;65.16
51299;BME280;37382;45.192;9.790;2023-04-22T13:55:20;100929.47;;;25.43;62.82
51299;BME280;37382;45.192;9.790;2023-04-22T13:57:49;100918.50;;;25.81;63.41
51299;BME280;37382;45.192;9.790;2023-04-22T14:00:18;100919.03;;;25.59;60.02
51299;BME280;37382;45.192;9.790;2023-04-22T14:02:47;100920.59;;;24.17;62.40
51299;BME280;37382;45.192;9.790;2023-04-22T14:05:15;100920.66;;;24.56;61.43
51299;BME280;37382;45.192;9.790;2023-04-22T14:07:43;100909.19;;;24.73;62.48
51299;BME280;37382;45.192;9.790;2023-04-22T14:10:11;100908.16;;;26.10;61.82
51299;BME280;37382;45.192;9.790;2023-04-22T14:12:39;100909.31;;;26.86;57.07
51299;BME280;37382;45.192;9.790;2023-04-22T14:15:07;100907.56;;;27.56;53.91
51299;BME280;37382;45.192;9.790;2023-04-22T14:17:38;100906.97;;;27.26;50.88
51299;BME280;37382;45.192;9.790;2023-04-22T14:20:07;100918.94;;;25.05;51.73
51299;BME280;37382;45.192;9.790;2023-04-22T14:22:36;100919.41;;;24.28;54.48
51299;BME280;37382;45.192;9.790;2023-04-22T14:25:03;100914.16;;;25.45;54.03
51299;BME280;37382;45.192;9.790;2023-04-22T14:27:31;100896.25;;;26.43;51.46
51299;BME280;37382;45.192;9.790;2023-04-22T14:30:00;100888.72;;;27.33;51.00
51299;BME280;37382;45.192;9.790;2023-04-22T14:32:28;100892.16;;;28.28;46.52
51299;BME280;37382;45.192;9.790;2023-04-22T14:34:55;100891.72;;;30.45;41.39
51299;BME280;37382;45.192;9.790;2023-04-22T14:37:23;100881.81;;;32.88;38.39
51299;BME280;37382;45.192;9.790;2023-04-22T14:39:50;100889.13;;;32.89;37.36
51299;BME280;37382;45.192;9.790;2023-04-22T14:42:17;100883.41;;;35.75;32.64
51299;BME280;37382;45.192;9.790;2023-04-22T14:44:45;100877.34;;;36.44;29.81
51299;BME280;37382;45.192;9.790;2023-04-22T14:47:13;100873.50;;;37.61;29.67
51299;BME280;37382;45.192;9.790;2023-04-22T14:49:40;100874.75;;;36.94;30.19
51299;BME280;37382;45.192;9.790;2023-04-22T14:52:08;100869.72;;;35.61;30.00
51299;BME280;37382;45.192;9.790;2023-04-22T14:54:36;100877.81;;;34.59;29.76
51299;BME280;37382;45.192;9.790;2023-04-22T14:57:03;100870.19;;;36.70;26.99
51299;BME280;37382;45.192;9.790;2023-04-22T14:59:32;100874.94;;;33.44;28.26
51299;BME280;37382;45.192;9.790;2023-04-22T15:01:59;100868.28;;;31.88;30.63
51299;BME280;37382;45.192;9.790;2023-04-22T15:04:26;100880.09;;;33.42;29.54
51299;BME280;37382;45.192;9.790;2023-04-22T15:06:55;100879.03;;;34.86;27.78
51299;BME280;37382;45.192;9.790;2023-04-22T15:09:24;100867.31;;;38.32;26.79
51299;BME280;37382;45.192;9.790;2023-04-22T15:11:51;100867.44;;;39.52;25.18
51299;BME280;37382;45.192;9.790;2023-04-22T15:14:21;100869.72;;;36.48;28.38
51299;BME280;37382;45.192;9.790;2023-04-22T15:16:48;100864.53;;;39.45;26.25
51299;BME280;37382;45.192;9.790;2023-04-22T15:19:16;100860.38;;;40.50;25.33
51299;BME280;37382;45.192;9.790;2023-04-22T15:21:44;100854.59;;;39.69;26.30
51299;BME280;37382;45.192;9.790;2023-04-22T15:24:13;100859.25;;;39.47;26.62
51299;BME280;37382;45.192;9.790;2023-04-22T15:26:40;100856.63;;;37.22;28.26
51299;BME280;37382;45.192;9.790;2023-04-22T15:29:08;100856.06;;;40.08;25.68
51299;BME280;37382;45.192;9.790;2023-04-22T15:31:36;100860.81;;;39.00;27.29
51299;BME280;37382;45.192;9.790;2023-04-22T15:34:04;100846.81;;;39.62;26.91
51299;BME280;37382;45.192;9.790;2023-04-22T15:36:32;100849.56;;;38.39;27.90
51299;BME280;37382;45.192;9.790;2023-04-22T15:39:00;100863.31;;;35.96;29.96
51299;BME280;37382;45.192;9.790;2023-04-22T15:41:27;100851.56;;;35.62;28.71
51299;BME280;37382;45.192;9.790;2023-04-22T15:43:54;100862.00;;;34.17;30.02
51299;BME280;37382;45.192;9.790;2023-04-22T15:46:22;100855.75;;;35.37;29.54
51299;BME280;37382;45.192;9.790;2023-04-22T15:48:50;100860.47;;;32.66;32.19
51299;BME280;37382;45.192;9.790;2023-04-22T15:51:18;100859.94;;;32.73;32.31
51299;BME280;37382;45.192;9.790;2023-04-22T15:53:46;100857.34;;;33.96;31.20
51299;BME280;37382;45.192;9.790;2023-04-22T15:56:13;100860.66;;;31.59;34.33
51299;BME280;37382;45.192;9.790;2023-04-22T15:58:41;100860.69;;;30.68;36.19
51299;BME280;37382;45.192;9.790;2023-04-22T16:01:09;100866.41;;;29.21;38.14
51299;BME280;37382;45.192;9.790;2023-04-22T16:03:48;100867.53;;;28.52;40.57
51299;BME280;37382;45.192;9.790;2023-04-22T16:06:17;100869.84;;;28.36;39.97
51299;BME280;37382;45.192;9.790;2023-04-22T16:08:45;100865.66;;;27.42;41.04
51299;BME280;37382;45.192;9.790;2023-04-22T16:11:14;100861.03;;;28.43;40.28
51299;BME280;37382;45.192;9.790;2023-04-22T16:13:42;100872.47;;;27.77;40.33
51299;BME280;37382;45.192;9.790;2023-04-22T16:16:09;100859.69;;;26.83;42.14
51299;BME280;37382;45.192;9.790;2023-04-22T16:18:37;100875.50;;;25.38;45.01
51299;BME280;37382;45.192;9.790;2023-04-22T16:21:08;100868.50;;;25.89;45.22
51299;BME280;37382;45.192;9.790;2023-04-22T16:23:36;100868.47;;;24.82;46.74
51299;BME280;37382;45.192;9.790;2023-04-22T16:26:04;100877.28;;;24.10;47.65
51299;BME280;37382;45.192;9.790;2023-04-22T16:28:32;100871.06;;;24.29;48.13
51299;BME280;37382;45.192;9.790;2023-04-22T16:30:59;100868.03;;;24.20;48.09
51299;BME280;37382;45.192;9.790;2023-04-22T16:33:27;100867.19;;;24.25;48.18
51299;BME280;37382;45.192;9.790;2023-04-22T16:35:54;100870.03;;;24.09;48.53
51299;BME280;37382;45.192;9.790;2023-04-22T16:38:22;100870.69;;;24.41;49.41
51299;BME280;37382;45.192;9.790;2023-04-22T16:40:49;100873.06;;;24.63;48.76
51299;BME280;37382;45.192;9.790;2023-04-22T16:43:20;100879.38;;;23.53;50.09
51299;BME280;37382;45.192;9.790;2023-04-22T16:45:48;100864.28;;;23.95;50.19
51299;BME280;37382;45.192;9.790;2023-04-22T16:48:15;100876.91;;;23.47;51.87
51299;BME280;37382;45.192;9.790;2023-04-22T16:50:42;100873.28;;;23.46;52.69
51299;BME280;37382;45.192;9.790;2023-04-22T16:53:10;100880.53;;;23.32;52.34
51299;BME280;37382;45.192;9.790;2023-04-22T16:55:38;100881.09;;;23.34;54.62
51299;BME280;37382;45.192;9.790;2023-04-22T16:58:06;100885.78;;;22.87;54.52
51299;BME280;37382;45.192;9.790;2023-04-22T17:00:34;100873.88;;;22.76;55.73
51299;BME280;37382;45.192;9.790;2023-04-22T17:03:02;100869.72;;;22.73;57.13
51299;BME280;37382;45.192;9.790;2023-04-22T17:05:30;100878.19;;;22.26;57.38
51299;BME280;37382;45.192;9.790;2023-04-22T17:07:58;100872.59;;;22.05;58.93
51299;BME280;37382;45.192;9.790;2023-04-22T17:10:25;100876.69;;;21.92;59.50